sensor_id;sensor_type;location;lat;lon;timestamp;pressure;altitude;pressure_sealevel;temperature;humidity
13434;BME280;6789;47.678;9.158;2024-01-15T00:00:15;53473.75;;;-138.23;74.89
13434;BME280;6789;47.678;9.158;2024-01-15T00:05:07;53441.63;;;-138.23;75.04
13434;BME280;6789;47.678;9.158;2024-01-15T00:09:59;53461.69;;;-138.23;75.38
13434;BME280;6789;47.678;9.158;2024-01-15T00:14:51;53473.75;;;-138.23;75.61
13434;BME280;6789;47.678;9.158;2024-01-15T00:19:43;53459.69;;;-138.23;76.35
13434;BME280;6789;47.678;9.158;2024-01-15T00:24:35;53477.78;;;-138.23;75.49
13434;BME280;6789;47.678;9.158;2024-01-15T00:29:27;53465.72;;;-138.23;75.25
13434;BME280;6789;47.678;9.158;2024-01-15T00:34:19;53459.69;;;-138.23;75.81
13434;BME280;6789;47.678;9.158;2024-01-15T00:39:11;53501.88;;;-138.23;75.47
13434;BME280;6789;47.678;9.158;2024-01-15T00:44:02;53487.81;;;-138.23;75.55
13434;BME280;6789;47.678;9.158;2024-01-15T00:48:54;53475.75;;;-138.23;75.26
13434;BME280;6789;47.678;9.158;2024-01-15T00:53:46;53455.69;;;-138.23;74.76
13434;BME280;6789;47.678;9.158;2024-01-15T00:58:38;53463.72;;;-138.23;75.81
13434;BME280;6789;47.678;9.158;2024-01-15T01:03:30;53473.75;;;-138.23;74.64
13434;BME280;6789;47.678;9.158;2024-01-15T01:08:22;53457.69;;;-138.23;74.63
13434;BME280;6789;47.678;9.158;2024-01-15T01:13:13;53455.69;;;-138.23;74.08
13434;BME280;6789;47.678;9.158;2024-01-15T01:18:05;53473.75;;;-138.23;73.55
13434;BME280;6789;47.678;9.158;2024-01-15T01:22:57;53485.81;;;-138.23;72.60
13434;BME280;6789;47.678;9.158;2024-01-15T01:27:49;53461.69;;;-138.23;72.29
13434;BME280;6789;47.678;9.158;2024-01-15T01:32:41;53473.75;;;-138.23;71.57
13434;BME280;6789;47.678;9.158;2024-01-15T01:37:33;53489.81;;;-138.23;71.20
13434;BME280;6789;47.678;9.158;2024-01-15T01:42:25;53443.63;;;-138.23;71.20
13434;BME280;6789;47.678;9.158;2024-01-15T01:47:18;53451.66;;;-138.23;71.06
13434;BME280;6789;47.678;9.158;2024-01-15T01:52:10;53485.81;;;-138.23;70.20
13434;BME280;6789;47.678;9.158;2024-01-15T01:57:04;53479.78;;;-138.23;69.86
13434;BME280;6789;47.678;9.158;2024-01-15T02:01:58;53467.72;;;-138.23;68.85
13434;BME280;6789;47.678;9.158;2024-01-15T02:06:52;53439.63;;;-138.23;69.34
13434;BME280;6789;47.678;9.158;2024-01-15T02:11:46;53427.56;;;-138.23;69.07
13434;BME280;6789;47.678;9.158;2024-01-15T02:16:38;53461.69;;;-138.23;67.84
13434;BME280;6789;47.678;9.158;2024-01-15T02:21:32;53473.75;;;-138.23;68.42
13434;BME280;6789;47.678;9.158;2024-01-15T02:26:24;53435.59;;;-138.23;69.00
13434;BME280;6789;47.678;9.158;2024-01-15T02:31:16;53473.75;;;-138.23;70.47
13434;BME280;6789;47.678;9.158;2024-01-15T02:36:08;53461.69;;;-138.23;70.62
13434;BME280;6789;47.678;9.158;2024-01-15T02:41:00;53449.66;;;-138.23;70.79
13434;BME280;6789;47.678;9.158;2024-01-15T02:45:51;53451.66;;;-138.23;70.43
13434;BME280;6789;47.678;9.158;2024-01-15T02:50:44;53489.81;;;-138.23;70.68
13434;BME280;6789;47.678;9.158;2024-01-15T02:55:35;53477.78;;;-138.23;70.17
13434;BME280;6789;47.678;9.158;2024-01-15T03:00:27;53465.72;;;-138.23;69.67
13434;BME280;6789;47.678;9.158;2024-01-15T03:05:19;53485.81;;;-138.23;68.35
13434;BME280;6789;47.678;9.158;2024-01-15T03:10:11;53471.75;;;-138.23;66.42
13434;BME280;6789;47.678;9.158;2024-01-15T03:15:04;53473.75;;;-138.23;66.69
13434;BME280;6789;47.678;9.158;2024-01-15T03:19:56;53441.63;;;-138.23;66.14
13434;BME280;6789;47.678;9.158;2024-01-15T03:24:48;53493.84;;;-138.23;66.12
13434;BME280;6789;47.678;9.158;2024-01-15T03:29:40;53465.72;;;-138.23;66.88
13434;BME280;6789;47.678;9.158;2024-01-15T03:34:32;53511.91;;;-138.23;66.26
13434;BME280;6789;47.678;9.158;2024-01-15T03:39:25;53435.59;;;-138.23;64.94
13434;BME280;6789;47.678;9.158;2024-01-15T03:44:16;53487.81;;;-138.23;64.64
13434;BME280;6789;47.678;9.158;2024-01-15T03:49:08;53461.69;;;-138.23;64.89
13434;BME280;6789;47.678;9.158;2024-01-15T03:54:01;53441.63;;;-138.23;63.01
13434;BME280;6789;47.678;9.158;2024-01-15T03:58:52;53487.81;;;-138.23;63.33
13434;BME280;6789;47.678;9.158;2024-01-15T04:03:44;53457.69;;;-138.23;63.10
13434;BME280;6789;47.678;9.158;2024-01-15T04:08:36;53467.72;;;-138.23;63.12
13434;BME280;6789;47.678;9.158;2024-01-15T04:13:28;53489.81;;;-138.23;63.04
13434;BME280;6789;47.678;9.158;2024-01-15T04:18:19;53479.78;;;-138.23;64.00
13434;BME280;6789;47.678;9.158;2024-01-15T04:23:11;53453.66;;;-138.23;63.50
13434;BME280;6789;47.678;9.158;2024-01-15T04:28:03;53483.78;;;-138.23;64.49
13434;BME280;6789;47.678;9.158;2024-01-15T04:32:56;53445.63;;;-138.23;65.43
13434;BME280;6789;47.678;9.158;2024-01-15T04:37:48;53445.63;;;-138.23;66.07
13434;BME280;6789;47.678;9.158;2024-01-15T04:42:39;53435.59;;;-138.23;66.71
13434;BME280;6789;47.678;9.158;2024-01-15T04:47:31;53467.72;;;-138.23;66.66
13434;BME280;6789;47.678;9.158;2024-01-15T04:52:23;53473.75;;;-138.23;66.71
13434;BME280;6789;47.678;9.158;2024-01-15T04:57:15;53439.63;;;-138.23;65.45
13434;BME280;6789;47.678;9.158;2024-01-15T05:02:06;53477.78;;;-138.23;64.96
13434;BME280;6789;47.678;9.158;2024-01-15T05:06:59;53449.66;;;-138.23;64.33
13434;BME280;6789;47.678;9.158;2024-01-15T05:11:50;53421.53;;;-138.23;63.61
13434;BME280;6789;47.678;9.158;2024-01-15T05:16:49;53465.72;;;-138.23;63.88
13434;BME280;6789;47.678;9.158;2024-01-15T05:21:41;53473.75;;;-138.23;63.11
13434;BME280;6789;47.678;9.158;2024-01-15T05:26:33;53479.78;;;-138.23;63.48
13434;BME280;6789;47.678;9.158;2024-01-15T05:31:25;53441.63;;;-138.23;63.46
13434;BME280;6789;47.678;9.158;2024-01-15T05:36:17;53453.66;;;-138.23;63.28
13434;BME280;6789;47.678;9.158;2024-01-15T05:41:08;53451.66;;;-138.23;63.70
13434;BME280;6789;47.678;9.158;2024-01-15T05:46:00;53461.69;;;-138.23;63.18
13434;BME280;6789;47.678;9.158;2024-01-15T05:50:52;53441.63;;;-138.23;64.07
13434;BME280;6789;47.678;9.158;2024-01-15T05:55:44;53485.81;;;-138.23;63.53
13434;BME280;6789;47.678;9.158;2024-01-15T06:00:36;53477.78;;;-138.23;63.88
13434;BME280;6789;47.678;9.158;2024-01-15T06:05:30;53469.75;;;-138.23;64.22
13434;BME280;6789;47.678;9.158;2024-01-15T06:10:22;53471.75;;;-138.23;63.81
13434;BME280;6789;47.678;9.158;2024-01-15T06:15:13;53493.84;;;-138.23;64.47
13434;BME280;6789;47.678;9.158;2024-01-15T06:20:06;53441.63;;;-138.23;63.83
13434;BME280;6789;47.678;9.158;2024-01-15T06:24:58;53449.66;;;-138.23;63.86
13434;BME280;6789;47.678;9.158;2024-01-15T06:29:50;53461.69;;;-138.23;63.90
13434;BME280;6789;47.678;9.158;2024-01-15T06:34:42;53457.69;;;-138.23;63.83
13434;BME280;6789;47.678;9.158;2024-01-15T06:39:34;53481.78;;;-138.23;63.91
13434;BME280;6789;47.678;9.158;2024-01-15T06:44:26;53465.72;;;-138.23;64.15
13434;BME280;6789;47.678;9.158;2024-01-15T06:49:17;53445.63;;;-138.23;64.40
13434;BME280;6789;47.678;9.158;2024-01-15T06:54:10;53427.56;;;-138.23;64.93
13434;BME280;6789;47.678;9.158;2024-01-15T06:59:01;53439.63;;;-138.23;64.54
13434;BME280;6789;47.678;9.158;2024-01-15T07:03:54;53449.66;;;-138.23;64.97
13434;BME280;6789;47.678;9.158;2024-01-15T07:08:46;53441.63;;;-138.23;64.61
13434;BME280;6789;47.678;9.158;2024-01-15T07:13:38;53465.72;;;-138.23;63.87
13434;BME280;6789;47.678;9.158;2024-01-15T07:18:30;53495.84;;;-138.23;65.75
13434;BME280;6789;47.678;9.158;2024-01-15T07:23:22;53451.66;;;-138.23;64.67
13434;BME280;6789;47.678;9.158;2024-01-15T07:28:14;53467.72;;;-138.23;64.94
13434;BME280;6789;47.678;9.158;2024-01-15T07:33:05;53475.75;;;-138.23;65.12
13434;BME280;6789;47.678;9.158;2024-01-15T07:37:57;53461.69;;;-138.23;64.76
13434;BME280;6789;47.678;9.158;2024-01-15T07:42:50;53415.53;;;-138.23;65.57
13434;BME280;6789;47.678;9.158;2024-01-15T07:47:42;53429.56;;;-138.23;66.42
13434;BME280;6789;47.678;9.158;2024-01-15T07:52:34;53429.56;;;-138.23;66.44
13434;BME280;6789;47.678;9.158;2024-01-15T07:57:26;53453.66;;;-138.23;66.34
13434;BME280;6789;47.678;9.158;2024-01-15T08:02:18;53417.53;;;-138.23;66.29
13434;BME280;6789;47.678;9.158;2024-01-15T08:07:09;53485.81;;;-138.23;65.85
13434;BME280;6789;47.678;9.158;2024-01-15T08:12:01;53469.75;;;-138.23;66.03
13434;BME280;6789;47.678;9.158;2024-01-15T08:16:53;53425.56;;;-138.23;66.12
13434;BME280;6789;47.678;9.158;2024-01-15T08:21:45;53487.81;;;-138.23;66.47
13434;BME280;6789;47.678;9.158;2024-01-15T08:26:37;53471.75;;;-138.23;66.27
13434;BME280;6789;47.678;9.158;2024-01-15T08:31:29;53479.78;;;-138.23;66.72
13434;BME280;6789;47.678;9.158;2024-01-15T08:36:23;53453.66;;;-138.23;66.12
13434;BME280;6789;47.678;9.158;2024-01-15T08:41:16;53461.69;;;-138.23;66.42
13434;BME280;6789;47.678;9.158;2024-01-15T08:46:08;53501.88;;;-138.23;66.79
13434;BME280;6789;47.678;9.158;2024-01-15T08:51:01;53443.63;;;-138.23;66.28
13434;BME280;6789;47.678;9.158;2024-01-15T08:55:53;53477.78;;;-138.23;66.61
13434;BME280;6789;47.678;9.158;2024-01-15T09:00:45;53477.78;;;-138.23;66.61
13434;BME280;6789;47.678;9.158;2024-01-15T09:05:37;53437.59;;;-138.23;66.04
13434;BME280;6789;47.678;9.158;2024-01-15T09:10:29;53461.69;;;-138.23;66.02
13434;BME280;6789;47.678;9.158;2024-01-15T09:15:20;53445.63;;;-138.23;65.58
13434;BME280;6789;47.678;9.158;2024-01-15T09:20:12;53441.63;;;-138.23;65.58
13434;BME280;6789;47.678;9.158;2024-01-15T09:25:04;53453.66;;;-138.23;65.38
13434;BME280;6789;47.678;9.158;2024-01-15T09:29:56;53465.72;;;-138.23;65.14
13434;BME280;6789;47.678;9.158;2024-01-15T09:34:48;53433.59;;;-138.23;64.91
13434;BME280;6789;47.678;9.158;2024-01-15T09:39:41;53463.72;;;-138.23;64.41
13434;BME280;6789;47.678;9.158;2024-01-15T09:44:32;53453.66;;;-138.23;63.78
13434;BME280;6789;47.678;9.158;2024-01-15T09:49:24;53461.69;;;-138.23;63.16
13434;BME280;6789;47.678;9.158;2024-01-15T09:54:16;53475.75;;;-138.23;63.16
13434;BME280;6789;47.678;9.158;2024-01-15T09:59:09;53445.63;;;-138.23;62.81
13434;BME280;6789;47.678;9.158;2024-01-15T10:04:01;53449.66;;;-138.23;63.80
13434;BME280;6789;47.678;9.158;2024-01-15T10:08:56;53429.56;;;-138.23;63.02
13434;BME280;6789;47.678;9.158;2024-01-15T10:13:50;53453.66;;;-138.23;62.94
13434;BME280;6789;47.678;9.158;2024-01-15T10:18:51;53451.66;;;-138.23;61.80
13434;BME280;6789;47.678;9.158;2024-01-15T10:23:43;53407.50;;;-138.23;61.40
13434;BME280;6789;47.678;9.158;2024-01-15T10:28:35;53415.53;;;-138.23;61.38
13434;BME280;6789;47.678;9.158;2024-01-15T10:33:27;53437.59;;;-138.23;61.53
13434;BME280;6789;47.678;9.158;2024-01-15T10:38:21;53437.59;;;-138.23;61.43
13434;BME280;6789;47.678;9.158;2024-01-15T10:43:16;53433.59;;;-138.23;60.96
13434;BME280;6789;47.678;9.158;2024-01-15T10:48:09;53401.47;;;-138.23;60.59
13434;BME280;6789;47.678;9.158;2024-01-15T10:53:03;53417.53;;;-138.23;60.16
13434;BME280;6789;47.678;9.158;2024-01-15T10:57:55;53441.63;;;-138.23;59.70
13434;BME280;6789;47.678;9.158;2024-01-15T11:02:48;53455.69;;;-138.23;59.76
13434;BME280;6789;47.678;9.158;2024-01-15T11:07:40;53411.50;;;-138.23;59.82
13434;BME280;6789;47.678;9.158;2024-01-15T11:12:33;53457.69;;;-138.23;60.34
13434;BME280;6789;47.678;9.158;2024-01-15T11:17:25;53457.69;;;-138.23;59.37
13434;BME280;6789;47.678;9.158;2024-01-15T11:33:34;53453.66;;;-138.23;60.64
13434;BME280;6789;47.678;9.158;2024-01-15T11:38:41;53485.81;;;-138.23;60.26
13434;BME280;6789;47.678;9.158;2024-01-15T11:43:47;53465.72;;;-138.23;59.89
13434;BME280;6789;47.678;9.158;2024-01-15T11:48:43;53457.69;;;-138.23;60.00
13434;BME280;6789;47.678;9.158;2024-01-15T11:53:47;53489.81;;;-138.23;59.00
13434;BME280;6789;47.678;9.158;2024-01-15T11:58:40;53449.66;;;-138.23;58.45
13434;BME280;6789;47.678;9.158;2024-01-15T12:03:32;53435.59;;;-138.23;57.90
13434;BME280;6789;47.678;9.158;2024-01-15T12:08:27;53483.78;;;-138.23;58.20
13434;BME280;6789;47.678;9.158;2024-01-15T12:13:20;53407.50;;;-138.23;58.11
13434;BME280;6789;47.678;9.158;2024-01-15T12:18:16;53453.66;;;-138.23;58.38
13434;BME280;6789;47.678;9.158;2024-01-15T12:23:10;53415.53;;;-138.23;57.56
13434;BME280;6789;47.678;9.158;2024-01-15T12:28:16;53449.66;;;-138.23;56.21
13434;BME280;6789;47.678;9.158;2024-01-15T12:33:08;53421.53;;;-138.23;56.81
13434;BME280;6789;47.678;9.158;2024-01-15T12:38:01;53419.53;;;-138.23;56.64
13434;BME280;6789;47.678;9.158;2024-01-15T12:42:57;53417.53;;;-138.23;56.16
13434;BME280;6789;47.678;9.158;2024-01-15T12:47:49;53449.66;;;-138.23;56.26
13434;BME280;6789;47.678;9.158;2024-01-15T12:52:43;53449.66;;;-138.23;57.19
13434;BME280;6789;47.678;9.158;2024-01-15T12:57:35;53467.72;;;-138.23;57.36
13434;BME280;6789;47.678;9.158;2024-01-15T13:02:27;53445.63;;;-138.23;57.42
13434;BME280;6789;47.678;9.158;2024-01-15T13:07:19;53421.53;;;-138.23;57.26
13434;BME280;6789;47.678;9.158;2024-01-15T13:12:11;53413.50;;;-138.23;56.49
13434;BME280;6789;47.678;9.158;2024-01-15T13:17:03;53431.59;;;-138.23;55.54
13434;BME280;6789;47.678;9.158;2024-01-15T13:21:55;53409.50;;;-138.23;55.42
13434;BME280;6789;47.678;9.158;2024-01-15T13:26:50;53441.63;;;-138.23;55.39
13434;BME280;6789;47.678;9.158;2024-01-15T13:31:41;53431.59;;;-138.23;55.51
13434;BME280;6789;47.678;9.158;2024-01-15T13:36:34;53469.75;;;-138.23;55.83
13434;BME280;6789;47.678;9.158;2024-01-15T13:46:44;53421.53;;;-138.23;54.90
13434;BME280;6789;47.678;9.158;2024-01-15T13:51:36;53425.56;;;-138.23;55.04
13434;BME280;6789;47.678;9.158;2024-01-15T13:56:28;53421.53;;;-138.23;54.81
13434;BME280;6789;47.678;9.158;2024-01-15T14:01:25;53441.63;;;-138.23;54.35
13434;BME280;6789;47.678;9.158;2024-01-15T14:06:17;53421.53;;;-138.23;55.00
13434;BME280;6789;47.678;9.158;2024-01-15T14:11:08;53423.56;;;-138.23;54.44
13434;BME280;6789;47.678;9.158;2024-01-15T14:16:01;53423.56;;;-138.23;55.12
13434;BME280;6789;47.678;9.158;2024-01-15T14:20:53;53381.38;;;-138.23;54.82
13434;BME280;6789;47.678;9.158;2024-01-15T14:25:45;53433.59;;;-138.23;55.36
13434;BME280;6789;47.678;9.158;2024-01-15T14:30:37;53405.47;;;-138.23;55.69
13434;BME280;6789;47.678;9.158;2024-01-15T14:35:29;53439.63;;;-138.23;56.33
13434;BME280;6789;47.678;9.158;2024-01-15T14:40:21;53409.50;;;-138.23;56.91
13434;BME280;6789;47.678;9.158;2024-01-15T14:45:13;53427.56;;;-138.23;58.36
13434;BME280;6789;47.678;9.158;2024-01-15T14:50:08;53409.50;;;-138.23;58.65
13434;BME280;6789;47.678;9.158;2024-01-15T14:55:02;53413.50;;;-138.23;59.66
13434;BME280;6789;47.678;9.158;2024-01-15T14:59:54;53441.63;;;-138.23;60.29
13434;BME280;6789;47.678;9.158;2024-01-15T15:04:47;53441.63;;;-138.23;60.78
13434;BME280;6789;47.678;9.158;2024-01-15T15:09:43;53381.38;;;-138.23;61.54
13434;BME280;6789;47.678;9.158;2024-01-15T15:14:38;53429.56;;;-138.23;62.17
13434;BME280;6789;47.678;9.158;2024-01-15T15:19:46;53433.59;;;-138.23;62.42
13434;BME280;6789;47.678;9.158;2024-01-15T15:24:40;53417.53;;;-138.23;62.88
13434;BME280;6789;47.678;9.158;2024-01-15T15:29:33;53425.56;;;-138.23;63.78
13434;BME280;6789;47.678;9.158;2024-01-15T15:34:27;53425.56;;;-138.23;64.00
13434;BME280;6789;47.678;9.158;2024-01-15T15:39:19;53435.59;;;-138.23;63.53
13434;BME280;6789;47.678;9.158;2024-01-15T15:44:11;53431.59;;;-138.23;63.67
13434;BME280;6789;47.678;9.158;2024-01-15T15:49:04;53473.75;;;-138.23;63.85
13434;BME280;6789;47.678;9.158;2024-01-15T15:53:58;53421.53;;;-138.23;62.70
13434;BME280;6789;47.678;9.158;2024-01-15T15:58:50;53425.56;;;-138.23;62.71
13434;BME280;6789;47.678;9.158;2024-01-15T16:03:42;53455.69;;;-138.23;61.87
13434;BME280;6789;47.678;9.158;2024-01-15T16:08:34;53405.47;;;-138.23;61.11
13434;BME280;6789;47.678;9.158;2024-01-15T16:13:26;53451.66;;;-138.23;60.93
13434;BME280;6789;47.678;9.158;2024-01-15T16:18:18;53421.53;;;-138.23;60.64
13434;BME280;6789;47.678;9.158;2024-01-15T16:23:29;53427.56;;;-138.23;60.43
13434;BME280;6789;47.678;9.158;2024-01-15T16:28:41;53425.56;;;-138.23;60.56
13434;BME280;6789;47.678;9.158;2024-01-15T16:33:33;53427.56;;;-138.23;60.55
13434;BME280;6789;47.678;9.158;2024-01-15T16:38:25;53471.75;;;-138.23;60.24
13434;BME280;6789;47.678;9.158;2024-01-15T16:43:17;53445.63;;;-138.23;59.79
13434;BME280;6789;47.678;9.158;2024-01-15T16:48:09;53445.63;;;-138.23;60.49
13434;BME280;6789;47.678;9.158;2024-01-15T16:53:01;53459.69;;;-138.23;60.66
13434;BME280;6789;47.678;9.158;2024-01-15T16:57:53;53409.50;;;-138.23;61.70
13434;BME280;6789;47.678;9.158;2024-01-15T17:02:44;53453.66;;;-138.23;62.07
13434;BME280;6789;47.678;9.158;2024-01-15T17:07:37;53429.56;;;-138.23;61.50
13434;BME280;6789;47.678;9.158;2024-01-15T17:12:29;53433.59;;;-138.23;61.43
13434;BME280;6789;47.678;9.158;2024-01-15T17:17:21;53451.66;;;-138.23;62.25
13434;BME280;6789;47.678;9.158;2024-01-15T17:22:14;53413.50;;;-138.23;62.84
13434;BME280;6789;47.678;9.158;2024-01-15T17:27:05;53445.63;;;-138.23;63.64
13434;BME280;6789;47.678;9.158;2024-01-15T17:31:59;53437.59;;;-138.23;64.17
13434;BME280;6789;47.678;9.158;2024-01-15T17:36:51;53451.66;;;-138.23;65.24
13434;BME280;6789;47.678;9.158;2024-01-15T17:41:42;53465.72;;;-138.23;64.79
13434;BME280;6789;47.678;9.158;2024-01-15T17:46:34;53433.59;;;-138.23;64.89
13434;BME280;6789;47.678;9.158;2024-01-15T17:51:27;53429.56;;;-138.23;65.21
13434;BME280;6789;47.678;9.158;2024-01-15T17:56:19;53421.53;;;-138.23;65.95
13434;BME280;6789;47.678;9.158;2024-01-15T18:01:11;53469.75;;;-138.23;64.59
13434;BME280;6789;47.678;9.158;2024-01-15T18:06:03;53409.50;;;-138.23;65.76
13434;BME280;6789;47.678;9.158;2024-01-15T18:10:55;53449.66;;;-138.23;65.65
13434;BME280;6789;47.678;9.158;2024-01-15T18:15:47;53453.66;;;-138.23;66.00
13434;BME280;6789;47.678;9.158;2024-01-15T18:20:38;53463.72;;;-138.23;66.12
13434;BME280;6789;47.678;9.158;2024-01-15T18:25:30;53465.72;;;-138.23;65.83
13434;BME280;6789;47.678;9.158;2024-01-15T18:30:22;53465.72;;;-138.23;66.15
13434;BME280;6789;47.678;9.158;2024-01-15T18:35:14;53433.59;;;-138.23;67.13
13434;BME280;6789;47.678;9.158;2024-01-15T18:40:07;53473.75;;;-138.23;67.49
13434;BME280;6789;47.678;9.158;2024-01-15T18:45:01;53471.75;;;-138.23;68.51
13434;BME280;6789;47.678;9.158;2024-01-15T18:49:53;53419.53;;;-138.23;68.54
13434;BME280;6789;47.678;9.158;2024-01-15T18:54:46;53453.66;;;-138.23;68.95
13434;BME280;6789;47.678;9.158;2024-01-15T18:59:38;53497.84;;;-138.23;68.64
13434;BME280;6789;47.678;9.158;2024-01-15T19:04:31;53461.69;;;-138.23;68.83
13434;BME280;6789;47.678;9.158;2024-01-15T19:09:23;53534.00;;;-138.23;69.74
13434;BME280;6789;47.678;9.158;2024-01-15T19:14:17;53461.69;;;-138.23;69.94
13434;BME280;6789;47.678;9.158;2024-01-15T19:19:09;53447.66;;;-138.23;70.58
13434;BME280;6789;47.678;9.158;2024-01-15T19:24:01;53451.66;;;-138.23;71.05
13434;BME280;6789;47.678;9.158;2024-01-15T19:28:54;53433.59;;;-138.23;71.03
13434;BME280;6789;47.678;9.158;2024-01-15T19:33:47;53467.72;;;-138.23;71.28
13434;BME280;6789;47.678;9.158;2024-01-15T19:38:40;53459.69;;;-138.23;70.72
13434;BME280;6789;47.678;9.158;2024-01-15T19:43:32;53473.75;;;-138.23;71.45
13434;BME280;6789;47.678;9.158;2024-01-15T19:48:24;53457.69;;;-138.23;71.53
13434;BME280;6789;47.678;9.158;2024-01-15T19:53:16;53459.69;;;-138.23;71.60
13434;BME280;6789;47.678;9.158;2024-01-15T19:58:07;53473.75;;;-138.23;72.02
13434;BME280;6789;47.678;9.158;2024-01-15T20:02:59;53445.63;;;-138.23;72.60
13434;BME280;6789;47.678;9.158;2024-01-15T20:07:51;53473.75;;;-138.23;72.41
13434;BME280;6789;47.678;9.158;2024-01-15T20:12:43;53461.69;;;-138.23;72.35
13434;BME280;6789;47.678;9.158;2024-01-15T20:17:35;53449.66;;;-138.23;72.06
13434;BME280;6789;47.678;9.158;2024-01-15T20:22:27;53465.72;;;-138.23;71.86
13434;BME280;6789;47.678;9.158;2024-01-15T20:27:20;53461.69;;;-138.23;70.77
13434;BME280;6789;47.678;9.158;2024-01-15T20:32:12;53487.81;;;-138.23;69.90
13434;BME280;6789;47.678;9.158;2024-01-15T20:37:05;53467.72;;;-138.23;69.78
13434;BME280;6789;47.678;9.158;2024-01-15T20:41:57;53453.66;;;-138.23;68.80
13434;BME280;6789;47.678;9.158;2024-01-15T20:46:49;53469.75;;;-138.23;68.51
13434;BME280;6789;47.678;9.158;2024-01-15T20:51:41;53461.69;;;-138.23;67.57
13434;BME280;6789;47.678;9.158;2024-01-15T20:56:33;53475.75;;;-138.23;68.02
13434;BME280;6789;47.678;9.158;2024-01-15T21:01:25;53449.66;;;-138.23;67.89
13434;BME280;6789;47.678;9.158;2024-01-15T21:06:17;53469.75;;;-138.23;66.80
13434;BME280;6789;47.678;9.158;2024-01-15T21:11:09;53459.69;;;-138.23;66.21
13434;BME280;6789;47.678;9.158;2024-01-15T21:16:00;53419.53;;;-138.23;65.08
13434;BME280;6789;47.678;9.158;2024-01-15T21:20:52;53481.78;;;-138.23;64.87
13434;BME280;6789;47.678;9.158;2024-01-15T21:25:46;53461.69;;;-138.23;64.59
13434;BME280;6789;47.678;9.158;2024-01-15T21:30:38;53459.69;;;-138.23;63.21
13434;BME280;6789;47.678;9.158;2024-01-15T21:35:30;53457.69;;;-138.23;62.62
13434;BME280;6789;47.678;9.158;2024-01-15T21:40:22;53477.78;;;-138.23;61.83
13434;BME280;6789;47.678;9.158;2024-01-15T21:45:14;53481.78;;;-138.23;59.16
13434;BME280;6789;47.678;9.158;2024-01-15T21:50:07;53439.63;;;-138.23;59.69
13434;BME280;6789;47.678;9.158;2024-01-15T21:55:00;53483.78;;;-138.23;58.44
13434;BME280;6789;47.678;9.158;2024-01-15T21:59:52;53455.69;;;-138.23;58.23
13434;BME280;6789;47.678;9.158;2024-01-15T22:04:44;53463.72;;;-138.23;56.79
13434;BME280;6789;47.678;9.158;2024-01-15T22:09:36;53459.69;;;-138.23;56.76
13434;BME280;6789;47.678;9.158;2024-01-15T22:14:28;53465.72;;;-138.23;55.24
13434;BME280;6789;47.678;9.158;2024-01-15T22:19:20;53433.59;;;-138.23;55.33
13434;BME280;6789;47.678;9.158;2024-01-15T22:24:11;53461.69;;;-138.23;55.87
13434;BME280;6789;47.678;9.158;2024-01-15T22:29:03;53451.66;;;-138.23;56.46
13434;BME280;6789;47.678;9.158;2024-01-15T22:33:56;53487.81;;;-138.23;56.54
13434;BME280;6789;47.678;9.158;2024-01-15T22:38:48;53469.75;;;-138.23;56.99
13434;BME280;6789;47.678;9.158;2024-01-15T22:43:42;53473.75;;;-138.23;57.23
13434;BME280;6789;47.678;9.158;2024-01-15T22:48:34;53463.72;;;-138.23;57.23
13434;BME280;6789;47.678;9.158;2024-01-15T22:53:25;53457.69;;;-138.23;56.81
13434;BME280;6789;47.678;9.158;2024-01-15T22:58:17;53463.72;;;-138.23;57.13
13434;BME280;6789;47.678;9.158;2024-01-15T23:18:15;53469.75;;;-138.23;57.43
13434;BME280;6789;47.678;9.158;2024-01-15T23:23:07;53479.78;;;-138.23;57.46
13434;BME280;6789;47.678;9.158;2024-01-15T23:27:59;53457.69;;;-138.23;57.93
13434;BME280;6789;47.678;9.158;2024-01-15T23:32:51;53461.69;;;-138.23;58.86
13434;BME280;6789;47.678;9.158;2024-01-15T23:37:43;53457.69;;;-138.23;59.73
13434;BME280;6789;47.678;9.158;2024-01-15T23:42:35;53485.81;;;-138.23;58.95
13434;BME280;6789;47.678;9.158;2024-01-15T23:47:27;53473.75;;;-138.23;58.70
13434;BME280;6789;47.678;9.158;2024-01-15T23:52:19;53495.84;;;-138.23;59.68
13434;BME280;6789;47.678;9.158;2024-01-15T23:57:10;53485.81;;;-138.23;60.35
